Terminal Aerodrome Forecast
Issued by NWS

Home | Current Version | Previous Version | Graphics & Text | Print | Product List | Glossary On
Versions: 1 2 3 4 5 6 7 8 9 10 11 12 13 14 15 16 17 18 19 20
000
FTUS43 KICT 240520
TAFSLN
TAF
KSLN 240520Z 2406/2506 08009KT P6SM BKN080
     FM240700 10013KT P6SM OVC035
     FM240900 10017KT P6SM OVC015
     FM241200 08013KT P6SM OVC008
     FM241700 02009KT P6SM OVC012=

USA.gov is the U.S. government's official web portal to all federal, state and local government web resources and services.